createdAt,value
2023-02-22T00:00:18.250Z,51.24
2023-02-22T00:01:22.448Z,51.24
2023-02-22T00:02:26.743Z,50.98
2023-02-22T00:03:31.026Z,51.14
2023-02-22T00:04:35.129Z,51.05
2023-02-22T00:05:39.234Z,50.95
2023-02-22T00:06:43.323Z,51.12
2023-02-22T00:07:47.410Z,51.13
2023-02-22T00:08:51.591Z,51.05
2023-02-22T00:09:55.703Z,51.02
2023-02-22T00:10:59.826Z,50.97
2023-02-22T00:12:03.934Z,51.15
2023-02-22T00:13:08.035Z,51.02
2023-02-22T00:14:12.159Z,51.51
2023-02-22T00:15:16.278Z,51.28
2023-02-22T00:16:20.530Z,51.1
2023-02-22T00:17:24.666Z,51.05
2023-02-22T00:18:28.905Z,51.06
2023-02-22T00:19:33.284Z,51.06
2023-02-22T00:20:37.368Z,51.11
2023-02-22T00:21:41.457Z,51.2
2023-02-22T00:22:45.574Z,51.05
2023-02-22T00:23:49.718Z,51.22
2023-02-22T00:24:53.832Z,51.22
2023-02-22T00:25:57.953Z,51.32
2023-02-22T00:27:02.072Z,51.3
2023-02-22T00:28:06.185Z,51.06
2023-02-22T00:29:10.299Z,51.06
2023-02-22T00:30:14.539Z,51.24
2023-02-22T00:31:20.519Z,51.15
2023-02-22T00:32:24.979Z,51.17
2023-02-22T00:33:29.100Z,51.14
2023-02-22T00:34:33.236Z,51.16
2023-02-22T00:35:37.387Z,51.1
2023-02-22T00:36:41.486Z,51.15
2023-02-22T00:37:45.598Z,51.12
2023-02-22T00:38:49.706Z,51.25
2023-02-22T00:39:53.789Z,51.21
2023-02-22T00:40:57.931Z,51.24
2023-02-22T00:42:02.482Z,51.05
2023-02-22T00:43:06.613Z,51.07
2023-02-22T00:44:10.732Z,51.06
2023-02-22T00:45:14.862Z,51.14
2023-02-22T00:46:19.353Z,51.1
2023-02-22T00:47:23.508Z,51.18
2023-02-22T00:48:27.848Z,51.2
2023-02-22T00:49:31.934Z,51.26
2023-02-22T00:50:36.055Z,51.15
2023-02-22T00:51:40.218Z,51.11
2023-02-22T00:52:44.322Z,51.12
2023-02-22T00:53:48.423Z,51.23
2023-02-22T00:54:52.527Z,51
2023-02-22T00:55:56.622Z,51.18
2023-02-22T00:57:00.761Z,51.23
2023-02-22T00:58:04.866Z,51.28
2023-02-22T00:59:08.981Z,51.25
2023-02-22T01:00:13.127Z,51.22
2023-02-22T01:01:18.585Z,51.2
2023-02-22T01:02:23.139Z,51.24
2023-02-22T01:03:27.316Z,51.17
2023-02-22T01:04:31.716Z,51.14
2023-02-22T01:05:36.485Z,51.03
2023-02-22T01:06:40.663Z,51.09
2023-02-22T01:07:44.816Z,51.08
2023-02-22T01:08:48.905Z,51.1
2023-02-22T01:09:53.052Z,51.08
2023-02-22T01:10:57.151Z,50.95
2023-02-22T01:12:01.253Z,50.94
2023-02-22T01:13:05.363Z,50.96
2023-02-22T01:14:09.460Z,51.05
2023-02-22T01:15:13.553Z,51.02
2023-02-22T01:16:17.768Z,51.12
2023-02-22T01:17:21.867Z,51.15
2023-02-22T01:18:26.105Z,51
2023-02-22T01:19:30.206Z,51.05
2023-02-22T01:20:34.375Z,51.09
2023-02-22T01:21:38.481Z,51.04
2023-02-22T01:22:42.566Z,51.01
2023-02-22T01:23:46.686Z,51.01
2023-02-22T01:24:50.794Z,50.98
2023-02-22T01:25:54.907Z,51.12
2023-02-22T01:26:59.002Z,50.97
2023-02-22T01:28:03.151Z,51
2023-02-22T01:29:07.273Z,51
2023-02-22T01:30:11.525Z,50.98
2023-02-22T01:31:16.594Z,50.99
2023-02-22T01:32:21.003Z,50.98
2023-02-22T01:33:25.134Z,51.07
2023-02-22T01:34:29.255Z,51.04
2023-02-22T01:35:33.408Z,51.03
2023-02-22T01:36:37.489Z,51.04
2023-02-22T01:37:41.591Z,51.02
2023-02-22T01:38:45.686Z,50.97
2023-02-22T01:39:49.798Z,50.99
2023-02-22T01:40:53.991Z,51.06
2023-02-22T01:41:58.105Z,51.04
2023-02-22T01:43:02.240Z,51.03
2023-02-22T01:44:06.326Z,50.86
2023-02-22T01:45:10.474Z,50.99
2023-02-22T01:46:14.832Z,50.96
2023-02-22T01:47:18.946Z,51.06
2023-02-22T01:48:23.069Z,51.05
2023-02-22T01:49:27.147Z,51.05
2023-02-22T01:50:31.258Z,51.03
2023-02-22T01:51:35.357Z,51.08
2023-02-22T01:52:39.465Z,51.08
2023-02-22T01:53:43.568Z,51.04
2023-02-22T01:54:47.700Z,51.09
2023-02-22T01:55:51.850Z,51.01
2023-02-22T01:56:55.944Z,51.15
2023-02-22T01:58:00.037Z,51.09
2023-02-22T01:59:04.149Z,51.09
2023-02-22T02:00:08.265Z,51.12
2023-02-22T02:01:12.372Z,51.09
2023-02-22T02:02:16.451Z,51.04
2023-02-22T02:03:20.556Z,51.09
2023-02-22T02:04:24.669Z,51.14
2023-02-22T02:05:28.767Z,51.08
2023-02-22T02:06:32.870Z,51.15
2023-02-22T02:07:36.984Z,51.17
2023-02-22T02:08:41.092Z,51.1
2023-02-22T02:09:45.183Z,51.09
2023-02-22T02:10:49.308Z,51.05
2023-02-22T02:11:53.407Z,51.18
2023-02-22T02:12:57.656Z,51.2
2023-02-22T02:14:01.759Z,51.13
2023-02-22T02:15:05.870Z,51.14
2023-02-22T02:16:09.965Z,51.2
2023-02-22T02:17:14.088Z,51.2
2023-02-22T02:18:18.211Z,51.13
2023-02-22T02:19:22.341Z,51.2
2023-02-22T02:20:26.444Z,51.23
2023-02-22T02:21:30.584Z,51.2
2023-02-22T02:22:34.692Z,51.09
2023-02-22T02:23:38.796Z,51.21
2023-02-22T02:24:42.895Z,51.28
2023-02-22T02:25:47.014Z,51.28
2023-02-22T02:26:51.127Z,51.2
2023-02-22T02:27:55.249Z,51.17
2023-02-22T02:28:59.340Z,51.25
2023-02-22T02:30:03.455Z,51.25
2023-02-22T02:31:07.546Z,51.29
2023-02-22T02:32:12.133Z,51.23
2023-02-22T02:33:16.297Z,51.31
2023-02-22T02:34:20.400Z,51.32
2023-02-22T02:35:24.505Z,51.32
2023-02-22T02:36:28.585Z,51.27
2023-02-22T02:37:32.696Z,51.22
2023-02-22T02:38:36.966Z,51.25
2023-02-22T02:39:41.083Z,51.18
2023-02-22T02:40:45.187Z,51.22
2023-02-22T02:41:49.290Z,51.27
2023-02-22T02:42:53.387Z,51.24
2023-02-22T02:43:57.499Z,51.21
2023-02-22T02:45:01.610Z,51.13
2023-02-22T02:46:05.706Z,51.31
2023-02-22T02:47:10.055Z,51.59
2023-02-22T02:48:14.223Z,51.47
2023-02-22T02:49:18.346Z,51.34
2023-02-22T02:50:22.477Z,51.4
2023-02-22T02:51:26.598Z,51.4
2023-02-22T02:52:30.751Z,51.51
2023-02-22T02:53:34.833Z,51.59
2023-02-22T02:54:38.953Z,51.51
2023-02-22T02:55:43.059Z,51.34
2023-02-22T02:56:47.240Z,51.43
2023-02-22T02:57:51.361Z,51.46
2023-02-22T02:58:55.534Z,51.54
2023-02-22T02:59:59.665Z,51.47
2023-02-22T03:01:03.812Z,51.42
2023-02-22T03:02:07.893Z,51.43
2023-02-22T03:03:12.020Z,51.4
2023-02-22T03:04:16.140Z,51.4
2023-02-22T03:05:20.379Z,51.41
2023-02-22T03:06:24.491Z,51.51
2023-02-22T03:07:28.748Z,51.51
2023-02-22T03:08:32.865Z,51.56
2023-02-22T03:09:36.993Z,51.49
2023-02-22T03:10:41.099Z,51.61
2023-02-22T03:11:45.194Z,51.53
2023-02-22T03:12:49.310Z,51.49
2023-02-22T03:13:53.430Z,51.55
2023-02-22T03:14:57.532Z,51.47
2023-02-22T03:16:01.895Z,51.65
2023-02-22T03:17:06.011Z,51.55
2023-02-22T03:18:10.119Z,51.58
2023-02-22T03:19:14.253Z,51.59
2023-02-22T03:20:18.352Z,51.44
2023-02-22T03:21:22.492Z,51.5
2023-02-22T03:22:26.623Z,51.48
2023-02-22T03:23:30.753Z,51.57
2023-02-22T03:24:34.888Z,51.58
2023-02-22T03:25:39.084Z,51.63
2023-02-22T03:26:43.239Z,51.69
2023-02-22T03:27:47.436Z,51.6
2023-02-22T03:28:51.601Z,51.66
2023-02-22T03:29:55.712Z,51.66
2023-02-22T03:30:59.962Z,51.61
2023-02-22T03:32:04.248Z,52.21
2023-02-22T03:33:08.356Z,51.78
2023-02-22T03:34:12.593Z,51.66
2023-02-22T03:35:16.711Z,51.6
2023-02-22T03:36:20.823Z,51.44
2023-02-22T03:37:24.941Z,51.86
2023-02-22T03:38:29.056Z,52.16
2023-02-22T03:39:33.377Z,51.83
2023-02-22T03:40:37.488Z,51.91
2023-02-22T03:41:41.607Z,51.99
2023-02-22T03:42:45.735Z,52.05
2023-02-22T03:43:49.864Z,52.06
2023-02-22T03:44:53.950Z,52.1
2023-02-22T03:45:58.034Z,52.01
2023-02-22T03:47:02.149Z,51.98
2023-02-22T03:48:06.269Z,51.88
2023-02-22T03:49:10.368Z,51.82
2023-02-22T03:50:14.476Z,51.69
2023-02-22T03:51:20.214Z,51.61
2023-02-22T03:52:24.482Z,51.6
2023-02-22T03:53:28.598Z,51.57
2023-02-22T03:54:32.774Z,51.51
2023-02-22T03:55:36.918Z,51.57
2023-02-22T03:56:41.042Z,51.62
2023-02-22T03:57:45.209Z,51.69
2023-02-22T03:58:49.336Z,51.73
2023-02-22T03:59:53.439Z,51.73
2023-02-22T04:00:57.539Z,51.83
2023-02-22T04:02:01.648Z,51.85
2023-02-22T04:03:05.974Z,51.89
2023-02-22T04:04:10.117Z,51.87
2023-02-22T04:05:14.254Z,51.89
2023-02-22T04:06:18.359Z,51.88
2023-02-22T04:07:22.459Z,51.97
2023-02-22T04:08:26.578Z,51.9
2023-02-22T04:09:30.668Z,51.93
2023-02-22T04:10:34.742Z,51.96
2023-02-22T04:11:38.876Z,51.85
2023-02-22T04:12:42.985Z,51.84
2023-02-22T04:13:47.143Z,51.93
2023-02-22T04:14:51.245Z,51.94
2023-02-22T04:15:55.536Z,51.85
2023-02-22T04:16:59.666Z,51.91
2023-02-22T04:18:03.783Z,51.89
2023-02-22T04:19:07.886Z,51.88
2023-02-22T04:20:11.991Z,51.88
2023-02-22T04:21:16.984Z,51.82
2023-02-22T04:22:21.207Z,51.84
2023-02-22T04:23:25.336Z,51.77
2023-02-22T04:24:32.301Z,51.71
2023-02-22T04:25:36.404Z,51.71
2023-02-22T04:26:40.498Z,51.69
2023-02-22T04:27:44.605Z,51.68
2023-02-22T04:28:48.714Z,51.75
2023-02-22T04:29:52.849Z,51.76
2023-02-22T04:30:57.186Z,51.73
2023-02-22T04:32:01.384Z,51.81
2023-02-22T04:33:05.506Z,51.83
2023-02-22T04:34:09.609Z,51.88
2023-02-22T04:35:13.726Z,51.91
2023-02-22T04:36:17.876Z,51.92
2023-02-22T04:37:21.973Z,51.93
2023-02-22T04:38:26.109Z,51.96
2023-02-22T04:39:30.341Z,51.88
2023-02-22T04:40:34.506Z,51.83
2023-02-22T04:41:38.629Z,51.81
2023-02-22T04:42:42.753Z,51.76
2023-02-22T04:43:46.847Z,51.73
2023-02-22T04:44:50.950Z,51.67
2023-02-22T04:45:55.074Z,51.67
2023-02-22T04:46:59.178Z,51.68
2023-02-22T04:48:03.283Z,51.61
2023-02-22T04:49:07.393Z,51.62
2023-02-22T04:50:11.547Z,51.65
2023-02-22T04:51:17.486Z,51.77
2023-02-22T04:52:22.278Z,51.72
2023-02-22T04:53:26.393Z,51.72
2023-02-22T04:54:30.493Z,51.6
2023-02-22T04:55:34.580Z,51.6
2023-02-22T04:56:38.695Z,51.55
2023-02-22T04:57:42.843Z,51.57
2023-02-22T04:58:46.993Z,51.57
2023-02-22T04:59:51.121Z,51.62
2023-02-22T05:00:55.243Z,51.62
2023-02-22T05:01:59.386Z,51.7
2023-02-22T05:03:03.739Z,51.76
2023-02-22T05:04:07.852Z,51.73
2023-02-22T05:05:11.978Z,51.75
2023-02-22T05:06:16.083Z,51.7
2023-02-22T05:07:20.221Z,51.63
2023-02-22T05:08:24.307Z,51.67
2023-02-22T05:09:28.469Z,51.77
2023-02-22T05:10:32.578Z,51.79
2023-02-22T05:11:36.696Z,51.78
2023-02-22T05:12:40.813Z,51.79
2023-02-22T05:13:44.934Z,51.76
2023-02-22T05:14:49.031Z,51.72
2023-02-22T05:15:53.293Z,51.71
2023-02-22T05:16:57.423Z,51.66
2023-02-22T05:18:02.665Z,51.7
2023-02-22T05:19:07.339Z,51.6
2023-02-22T05:20:11.428Z,51.52
2023-02-22T05:21:16.167Z,51.59
2023-02-22T05:22:20.500Z,51.61
2023-02-22T05:23:24.626Z,51.53
2023-02-22T05:24:28.726Z,51.34
2023-02-22T05:25:32.835Z,51.16
2023-02-22T05:26:36.938Z,50.94
2023-02-22T05:27:41.084Z,50.78
2023-02-22T05:28:45.207Z,50.75
2023-02-22T05:29:49.309Z,50.63
2023-02-22T05:30:53.416Z,50.55
2023-02-22T05:31:57.927Z,50.53
2023-02-22T05:33:02.244Z,50.55
2023-02-22T05:34:06.396Z,50.5
2023-02-22T05:35:10.500Z,50.48
2023-02-22T05:36:14.646Z,50.47
2023-02-22T05:37:18.808Z,50.47
2023-02-22T05:38:22.920Z,50.46
2023-02-22T05:39:27.061Z,50.45
2023-02-22T05:40:31.209Z,50.42
2023-02-22T05:41:35.288Z,50.44
2023-02-22T05:42:39.383Z,50.41
2023-02-22T05:43:43.530Z,50.42
2023-02-22T05:44:47.635Z,50.45
2023-02-22T05:45:51.781Z,50.47
2023-02-22T05:46:56.007Z,50.49
2023-02-22T05:48:00.191Z,50.6
2023-02-22T05:49:04.306Z,50.6
2023-02-22T05:50:08.464Z,50.6
2023-02-22T05:51:12.642Z,50.65
2023-02-22T05:52:16.759Z,50.61
2023-02-22T05:53:20.869Z,50.63
2023-02-22T05:54:24.988Z,50.64
2023-02-22T05:55:29.154Z,50.63
2023-02-22T05:56:33.264Z,50.69
2023-02-22T05:57:37.380Z,50.7
2023-02-22T05:58:41.511Z,50.62
2023-02-22T05:59:45.627Z,50.36
2023-02-22T06:00:49.740Z,50.19
2023-02-22T06:01:53.988Z,50.1
2023-02-22T06:02:58.076Z,50.05
2023-02-22T06:04:02.172Z,50.09
2023-02-22T06:05:06.277Z,50.11
2023-02-22T06:06:10.395Z,50.18
2023-02-22T06:07:14.497Z,50.21
2023-02-22T06:08:18.614Z,50.23
2023-02-22T06:09:22.714Z,50.25
2023-02-22T06:10:26.819Z,50.26
2023-02-22T06:11:30.929Z,50.3
2023-02-22T06:12:35.025Z,50.32
2023-02-22T06:13:39.147Z,50.34
2023-02-22T06:14:43.369Z,50.35
2023-02-22T06:15:47.478Z,50.39
2023-02-22T06:16:51.611Z,50.41
2023-02-22T06:17:55.709Z,50.45
2023-02-22T06:18:59.825Z,50.48
2023-02-22T06:20:03.992Z,50.5
2023-02-22T06:21:08.098Z,50.52
2023-02-22T06:22:12.218Z,50.54
2023-02-22T06:23:16.329Z,50.54
2023-02-22T06:24:20.448Z,50.58
2023-02-22T06:25:24.613Z,50.55
2023-02-22T06:26:28.732Z,50.59
2023-02-22T06:27:32.871Z,50.6
2023-02-22T06:28:37.009Z,50.63
2023-02-22T06:29:41.144Z,50.66
2023-02-22T06:30:45.445Z,50.67
2023-02-22T06:31:49.942Z,50.73
2023-02-22T06:32:54.146Z,50.71
2023-02-22T06:33:58.233Z,50.82
2023-02-22T06:35:02.347Z,50.76
2023-02-22T06:36:06.503Z,50.82
2023-02-22T06:37:10.652Z,50.88
2023-02-22T06:38:14.789Z,50.81
2023-02-22T06:39:18.939Z,50.79
2023-02-22T06:40:23.145Z,50.81
2023-02-22T06:41:27.233Z,50.92
2023-02-22T06:42:31.415Z,50.88
2023-02-22T06:43:35.530Z,50.96
2023-02-22T06:44:39.631Z,50.99
2023-02-22T06:45:43.831Z,50.87
2023-02-22T06:46:47.930Z,50.86
2023-02-22T06:47:52.044Z,50.92
2023-02-22T06:48:56.180Z,50.87
2023-02-22T06:50:00.328Z,50.83
2023-02-22T06:51:04.449Z,50.87
2023-02-22T06:52:08.550Z,50.91
2023-02-22T06:53:12.665Z,50.9
2023-02-22T06:54:16.782Z,51
2023-02-22T06:55:20.958Z,50.96
2023-02-22T06:56:25.065Z,50.92
2023-02-22T06:57:29.161Z,50.92
2023-02-22T06:58:33.291Z,50.97
2023-02-22T06:59:37.393Z,50.89
2023-02-22T07:00:41.626Z,50.91
2023-02-22T07:01:45.778Z,50.96
2023-02-22T07:02:49.890Z,50.86
2023-02-22T07:03:53.999Z,50.72
2023-02-22T07:04:58.120Z,50.87
2023-02-22T07:06:02.244Z,51.06
2023-02-22T07:07:06.334Z,51.01
2023-02-22T07:08:10.430Z,50.97
2023-02-22T07:09:14.534Z,51.04
2023-02-22T07:10:18.631Z,50.99
2023-02-22T07:11:22.723Z,50.88
2023-02-22T07:12:26.894Z,50.93
2023-02-22T07:13:31.051Z,50.83
2023-02-22T07:14:35.179Z,50.86
2023-02-22T07:15:39.285Z,50.98
2023-02-22T07:16:43.506Z,50.86
2023-02-22T07:17:47.623Z,50.83
2023-02-22T07:18:51.726Z,50.82
2023-02-22T07:19:55.839Z,51.02
2023-02-22T07:20:59.954Z,51.07
2023-02-22T07:22:04.102Z,51.17
2023-02-22T07:23:08.226Z,51.27
2023-02-22T07:24:12.340Z,51.23
2023-02-22T07:25:16.645Z,51.23
2023-02-22T07:26:20.854Z,51.16
2023-02-22T07:27:24.976Z,51.2
2023-02-22T07:28:29.085Z,51.12
2023-02-22T07:29:33.206Z,51.2
2023-02-22T07:30:37.585Z,51.3
2023-02-22T07:31:41.709Z,51.22
2023-02-22T07:32:46.319Z,51.2
2023-02-22T07:33:50.456Z,51.28
2023-02-22T07:34:54.563Z,51.2
2023-02-22T07:35:58.671Z,51.15
2023-02-22T07:37:02.814Z,51.18
2023-02-22T07:38:06.902Z,51.33
2023-02-22T07:39:11.014Z,51.17
2023-02-22T07:40:15.136Z,51.32
2023-02-22T07:41:20.257Z,51.34
2023-02-22T07:42:24.376Z,51.2
2023-02-22T07:43:28.493Z,51.28
2023-02-22T07:44:32.625Z,51.13
2023-02-22T07:45:36.989Z,51.2
2023-02-22T07:46:41.119Z,51.19
2023-02-22T07:47:45.277Z,51.23
2023-02-22T07:48:49.403Z,51.2
2023-02-22T07:49:53.516Z,51.2
2023-02-22T07:50:57.642Z,51.17
2023-02-22T07:52:01.773Z,51.31
2023-02-22T07:53:05.918Z,51.48
2023-02-22T07:54:10.042Z,51.23
2023-02-22T07:55:14.141Z,51.44
2023-02-22T07:56:18.241Z,51.3
2023-02-22T07:57:22.352Z,51.26
2023-02-22T07:58:26.453Z,51.26
2023-02-22T07:59:30.531Z,51.31
2023-02-22T08:00:34.690Z,51.29
2023-02-22T08:01:39.482Z,51.34
2023-02-22T08:02:43.722Z,51.25
2023-02-22T08:03:48.058Z,51.31
2023-02-22T08:04:52.233Z,51.44
2023-02-22T08:05:56.387Z,51.34
2023-02-22T08:07:00.488Z,51.33
2023-02-22T08:08:04.574Z,51.4
2023-02-22T08:09:08.696Z,51.37
2023-02-22T08:10:12.795Z,51.36
2023-02-22T08:11:17.962Z,51.34
2023-02-22T08:12:22.342Z,51.31
2023-02-22T08:13:26.647Z,51.36
2023-02-22T08:14:30.836Z,51.36
2023-02-22T08:15:35.100Z,51.36
2023-02-22T08:16:39.439Z,51.48
2023-02-22T08:17:43.546Z,51.46
2023-02-22T08:18:47.688Z,51.43
2023-02-22T08:19:51.791Z,51.49
2023-02-22T08:20:55.937Z,51.49
2023-02-22T08:22:00.035Z,51.48
2023-02-22T08:23:04.297Z,51.5
2023-02-22T08:24:08.504Z,51.48
2023-02-22T08:25:12.648Z,51.44
2023-02-22T08:26:16.749Z,51.46
2023-02-22T08:27:20.856Z,51.39
2023-02-22T08:28:24.989Z,51.45
2023-02-22T08:29:29.108Z,51.42
2023-02-22T08:30:33.486Z,51.45
2023-02-22T08:31:37.884Z,51.34
2023-02-22T08:32:42.309Z,51.19
2023-02-22T08:33:46.477Z,51.2
2023-02-22T08:34:50.565Z,51.33
2023-02-22T08:35:54.742Z,51.31
2023-02-22T08:36:58.913Z,51.36
2023-02-22T08:38:03.018Z,51.4
2023-02-22T08:39:07.147Z,51.44
2023-02-22T08:40:13.367Z,51.53
2023-02-22T08:41:19.364Z,51.56
2023-02-22T08:42:23.543Z,51.59
2023-02-22T08:43:27.664Z,51.63
2023-02-22T08:44:31.791Z,51.54
2023-02-22T08:45:36.039Z,51.5
2023-02-22T08:46:40.228Z,51.58
2023-02-22T08:47:44.404Z,51.62
2023-02-22T08:48:48.514Z,51.58
2023-02-22T08:49:52.627Z,51.58
2023-02-22T08:50:56.774Z,51.67
2023-02-22T08:52:00.874Z,51.67
2023-02-22T08:53:05.008Z,51.67
2023-02-22T08:54:09.242Z,51.62
2023-02-22T08:55:13.417Z,51.65
2023-02-22T08:56:17.579Z,51.73
2023-02-22T08:57:23.832Z,51.62
2023-02-22T08:58:27.974Z,51.58
2023-02-22T08:59:32.101Z,51.58
2023-02-22T09:00:36.478Z,51.54
2023-02-22T09:01:41.395Z,51.46
2023-02-22T09:02:45.534Z,51.43
2023-02-22T09:03:49.776Z,51.49
2023-02-22T09:04:53.891Z,51.4
2023-02-22T09:05:58.197Z,51.45
2023-02-22T09:07:02.384Z,51.34
2023-02-22T09:08:06.507Z,51.33
2023-02-22T09:09:10.716Z,51.32
2023-02-22T09:10:14.968Z,51.62
2023-02-22T09:11:19.720Z,51.34
2023-02-22T09:12:23.889Z,51.47
2023-02-22T09:13:27.982Z,51.45
2023-02-22T09:14:32.058Z,51.4
2023-02-22T09:15:36.182Z,51.43
2023-02-22T09:16:40.543Z,51.29
2023-02-22T09:17:44.658Z,51.45
2023-02-22T09:18:48.777Z,51.22
2023-02-22T09:19:52.908Z,51.15
2023-02-22T09:20:57.030Z,51.09
2023-02-22T09:22:01.120Z,51.3
2023-02-22T09:23:05.312Z,51.52
2023-02-22T09:24:09.524Z,51.37
2023-02-22T09:25:19.237Z,51.53
2023-02-22T09:26:23.338Z,51.28
2023-02-22T09:27:27.485Z,51.28
2023-02-22T09:28:31.596Z,51.42
2023-02-22T09:29:35.766Z,51.69
2023-02-22T09:30:40.281Z,51.46
2023-02-22T09:31:44.789Z,51.38
2023-02-22T09:32:49.759Z,51.54
2023-02-22T09:33:54.119Z,51.57
2023-02-22T09:34:58.358Z,51.25
2023-02-22T09:36:02.491Z,51.32
2023-02-22T09:37:06.654Z,51.39
2023-02-22T09:38:10.791Z,51.22
2023-02-22T09:39:14.959Z,51.11
2023-02-22T09:40:19.232Z,51.32
2023-02-22T09:41:23.330Z,51.27
2023-02-22T09:42:27.454Z,51.31
2023-02-22T09:43:31.573Z,51.19
2023-02-22T09:44:35.708Z,51.06
2023-02-22T09:45:39.925Z,51.23
2023-02-22T09:46:44.131Z,51.35
2023-02-22T09:47:48.555Z,51.31
2023-02-22T09:48:52.756Z,51.23
2023-02-22T09:49:56.921Z,51.44
2023-02-22T09:51:01.217Z,51.56
2023-02-22T09:52:05.316Z,51.66
2023-02-22T09:53:09.452Z,51.78
2023-02-22T09:54:13.593Z,51.89
2023-02-22T09:55:17.747Z,51.71
2023-02-22T09:56:22.428Z,51.73
2023-02-22T09:57:26.546Z,51.63
2023-02-22T09:58:30.683Z,51.64
2023-02-22T09:59:34.828Z,51.79
2023-02-22T10:00:39.008Z,51.84
2023-02-22T10:01:43.131Z,51.98
2023-02-22T10:02:47.247Z,51.9
2023-02-22T10:03:51.647Z,51.8
2023-02-22T10:04:55.780Z,51.66
2023-02-22T10:05:59.931Z,51.6
2023-02-22T10:07:04.034Z,51.73
2023-02-22T10:08:08.143Z,51.7
2023-02-22T10:09:12.265Z,51.78
2023-02-22T10:10:16.376Z,51.83
2023-02-22T10:11:20.509Z,51.79
2023-02-22T10:12:24.671Z,51.76
2023-02-22T10:13:28.770Z,51.74
2023-02-22T10:14:32.857Z,51.74
2023-02-22T10:15:36.972Z,51.81
2023-02-22T10:16:41.245Z,51.81
2023-02-22T10:17:45.350Z,51.8
2023-02-22T10:18:49.536Z,51.82
2023-02-22T10:19:56.602Z,51.76
2023-02-22T10:21:00.714Z,51.8
2023-02-22T10:22:04.873Z,51.81
2023-02-22T10:23:08.958Z,51.87
2023-02-22T10:24:13.112Z,51.8
2023-02-22T10:25:17.190Z,51.84
2023-02-22T10:26:21.658Z,51.88
2023-02-22T10:27:25.815Z,51.84
2023-02-22T10:28:29.958Z,51.88
2023-02-22T10:29:34.077Z,51.99
2023-02-22T10:30:38.313Z,52.13
2023-02-22T10:31:42.611Z,52.04
2023-02-22T10:32:46.760Z,51.93
2023-02-22T10:33:50.866Z,51.88
2023-02-22T10:34:54.979Z,51.9
2023-02-22T10:35:59.058Z,51.91
2023-02-22T10:37:03.235Z,51.93
2023-02-22T10:38:07.359Z,51.94
2023-02-22T10:39:11.441Z,51.96
2023-02-22T10:40:15.588Z,51.94
2023-02-22T10:41:19.668Z,51.89
2023-02-22T10:42:23.807Z,51.87
2023-02-22T10:43:28.294Z,51.78
2023-02-22T10:44:32.447Z,51.75
2023-02-22T10:45:36.842Z,51.72
2023-02-22T10:46:41.006Z,51.58
2023-02-22T10:47:45.124Z,51.56
2023-02-22T10:48:49.241Z,51.57
2023-02-22T10:49:53.389Z,51.54
2023-02-22T10:50:57.503Z,51.47
2023-02-22T10:52:01.740Z,51.44
2023-02-22T10:53:05.840Z,51.41
2023-02-22T10:54:10.064Z,51.35
2023-02-22T10:55:17.580Z,51.26
2023-02-22T10:56:22.000Z,51.26
2023-02-22T10:57:26.152Z,51.28
2023-02-22T10:58:30.248Z,51.3
2023-02-22T10:59:34.408Z,51.23
2023-02-22T11:00:38.657Z,51.24
2023-02-22T11:01:43.105Z,51.24
2023-02-22T11:02:47.226Z,51.27
2023-02-22T11:03:51.352Z,51.3
2023-02-22T11:04:55.671Z,51.26
2023-02-22T11:05:59.806Z,51.33
2023-02-22T11:07:03.943Z,51.37
2023-02-22T11:08:08.060Z,51.35
2023-02-22T11:09:12.231Z,51.38
2023-02-22T11:10:16.404Z,51.45
2023-02-22T11:11:20.658Z,51.41
2023-02-22T11:12:24.807Z,51.41
2023-02-22T11:13:28.938Z,51.45
2023-02-22T11:14:33.080Z,51.54
2023-02-22T11:15:37.180Z,51.52
2023-02-22T11:16:41.367Z,51.51
2023-02-22T11:17:45.488Z,51.52
2023-02-22T11:18:49.657Z,51.53
2023-02-22T11:19:53.864Z,51.44
2023-02-22T11:20:57.971Z,51.43
2023-02-22T11:22:02.086Z,51.42
2023-02-22T11:23:06.207Z,51.46
2023-02-22T11:24:10.343Z,51.41
2023-02-22T11:25:14.470Z,51.3
2023-02-22T11:26:18.623Z,51.25
2023-02-22T11:27:22.838Z,51.23
2023-02-22T11:28:26.980Z,51.24
2023-02-22T11:29:31.098Z,51.43
2023-02-22T11:30:35.651Z,51.42
2023-02-22T11:31:40.218Z,51.5
2023-02-22T11:32:44.388Z,51.59
2023-02-22T11:33:48.564Z,51.77
2023-02-22T11:35:10.249Z,52.07
2023-02-22T11:36:14.336Z,52.01
2023-02-22T11:37:18.511Z,51.95
2023-02-22T11:38:22.704Z,52.03
2023-02-22T11:39:27.155Z,52.12
2023-02-22T11:40:32.536Z,52.09
2023-02-22T11:41:37.457Z,52.02
2023-02-22T11:42:41.573Z,52.07
2023-02-22T11:43:45.694Z,52.1
2023-02-22T11:44:49.829Z,52.08
2023-02-22T11:46:03.185Z,52.06
2023-02-22T11:47:07.339Z,51.9
2023-02-22T11:48:11.463Z,51.88
2023-02-22T11:49:15.635Z,51.72
2023-02-22T11:50:19.754Z,51.65
2023-02-22T11:51:23.955Z,51.7
2023-02-22T11:52:29.330Z,51.65
2023-02-22T11:53:33.504Z,51.62
2023-02-22T11:54:37.694Z,51.6
2023-02-22T11:55:45.257Z,51.59
2023-02-22T11:56:49.387Z,51.58
2023-02-22T11:57:53.544Z,51.63
2023-02-22T11:58:57.779Z,51.61
2023-02-22T12:00:01.891Z,51.57
2023-02-22T12:01:05.987Z,51.56
2023-02-22T12:02:10.120Z,51.55
2023-02-22T12:03:14.393Z,51.57
2023-02-22T12:04:18.928Z,51.59
2023-02-22T12:05:23.176Z,51.58
2023-02-22T12:06:27.336Z,51.56
2023-02-22T12:07:31.485Z,51.56
2023-02-22T12:08:42.674Z,51.57
2023-02-22T12:09:46.814Z,51.62
2023-02-22T12:10:50.943Z,51.62
2023-02-22T12:11:55.074Z,51.62
2023-02-22T12:13:00.299Z,51.58
2023-02-22T12:14:04.412Z,51.53
2023-02-22T12:15:08.553Z,51.5
2023-02-22T12:16:12.934Z,51.54
2023-02-22T12:17:17.062Z,51.53
2023-02-22T12:18:21.170Z,51.49
2023-02-22T12:19:25.290Z,51.42
2023-02-22T12:20:29.450Z,51.42
2023-02-22T12:21:33.562Z,51.4
2023-02-22T12:22:37.687Z,51.32
2023-02-22T12:23:41.809Z,51.31
2023-02-22T12:24:45.939Z,51.27
2023-02-22T12:25:50.079Z,51.3
2023-02-22T12:26:57.630Z,51.3
2023-02-22T12:28:04.287Z,51.38
2023-02-22T12:29:11.816Z,51.37
2023-02-22T12:30:16.080Z,51.38
2023-02-22T12:31:21.366Z,51.44
2023-02-22T12:32:25.842Z,51.4
2023-02-22T12:33:30.150Z,51.36
2023-02-22T12:34:34.545Z,51.43
2023-02-22T12:35:38.801Z,51.46
2023-02-22T12:36:42.878Z,51.49
2023-02-22T12:37:47.068Z,51.48
2023-02-22T12:38:51.306Z,51.5
2023-02-22T12:39:56.181Z,51.49
2023-02-22T12:41:00.338Z,51.44
2023-02-22T12:42:04.458Z,51.42
2023-02-22T12:43:08.623Z,51.33
2023-02-22T12:44:12.737Z,51.27
2023-02-22T12:45:16.946Z,51.27
2023-02-22T12:46:21.291Z,51.24
2023-02-22T12:47:25.453Z,51.21
2023-02-22T12:48:29.576Z,51.26
2023-02-22T12:49:33.685Z,51.28
2023-02-22T12:50:37.824Z,51.29
2023-02-22T12:51:41.952Z,51.31
2023-02-22T12:52:46.110Z,51.41
2023-02-22T12:53:50.268Z,51.4
2023-02-22T12:54:54.396Z,51.4
2023-02-22T12:55:58.627Z,51.37
2023-02-22T12:57:02.765Z,51.39
2023-02-22T12:58:06.892Z,51.44
2023-02-22T12:59:11.016Z,51.65
2023-02-22T13:00:15.121Z,51.67
2023-02-22T13:01:20.793Z,51.28
2023-02-22T13:02:25.161Z,50.81
2023-02-22T13:03:29.289Z,50.52
2023-02-22T13:04:33.386Z,50.35
2023-02-22T13:05:37.823Z,50.14
2023-02-22T13:06:41.990Z,50.01
2023-02-22T13:07:46.155Z,49.9
2023-02-22T13:08:50.276Z,49.83
2023-02-22T13:09:54.422Z,49.75
2023-02-22T13:10:58.557Z,49.71
2023-02-22T13:12:02.849Z,49.6
2023-02-22T13:13:06.989Z,49.53
2023-02-22T13:14:11.193Z,49.42
2023-02-22T13:15:15.347Z,49.43
2023-02-22T13:16:19.593Z,49.41
2023-02-22T13:17:23.764Z,49.41
2023-02-22T13:18:28.032Z,49.36
2023-02-22T13:19:32.217Z,49.37
2023-02-22T13:20:36.352Z,49.38
2023-02-22T13:21:40.466Z,49.4
2023-02-22T13:22:44.624Z,49.28
2023-02-22T13:23:48.748Z,49.19
2023-02-22T13:24:52.870Z,49.17
2023-02-22T13:25:57.036Z,49.07
2023-02-22T13:27:01.156Z,48.97
2023-02-22T13:28:05.266Z,48.98
2023-02-22T13:29:09.373Z,48.92
2023-02-22T13:30:13.650Z,48.85
2023-02-22T13:31:19.029Z,48.84
2023-02-22T13:32:23.511Z,48.83
2023-02-22T13:33:27.901Z,48.78
2023-02-22T13:34:33.002Z,48.79
2023-02-22T13:35:37.128Z,48.82
2023-02-22T13:36:41.235Z,48.79
2023-02-22T13:37:45.349Z,48.83
2023-02-22T13:38:49.500Z,48.83
2023-02-22T13:39:53.605Z,48.8
2023-02-22T13:40:57.751Z,48.79
2023-02-22T13:42:01.889Z,48.82
2023-02-22T13:43:06.014Z,48.83
2023-02-22T13:44:10.133Z,48.82
2023-02-22T13:45:14.262Z,48.83
2023-02-22T13:46:19.510Z,48.82
2023-02-22T13:47:23.837Z,48.82
2023-02-22T13:48:27.954Z,48.85
2023-02-22T13:49:32.132Z,48.84
2023-02-22T13:50:36.237Z,48.83